sensor_id;sensor_type;location;lat;lon;timestamp;P1;durP1;ratioP1;P2;durP2;ratioP2
5961;SDS011;3007;50.770;0.250;2023-10-19T00:01:55;17.30;;;3.10;;
5961;SDS011;3007;50.770;0.250;2023-10-19T00:04:21;16.25;;;3.17;;
5961;SDS011;3007;50.770;0.250;2023-10-19T00:06:48;18.57;;;3.70;;
5961;SDS011;3007;50.770;0.250;2023-10-19T00:09:15;14.97;;;3.00;;
5961;SDS011;3007;50.770;0.250;2023-10-19T00:11:42;7.43;;;1.75;;
5961;SDS011;3007;50.770;0.250;2023-10-19T00:14:09;9.87;;;1.83;;
5961;SDS011;3007;50.770;0.250;2023-10-19T00:16:41;11.95;;;1.88;;
5961;SDS011;3007;50.770;0.250;2023-10-19T00:19:10;13.80;;;2.75;;
5961;SDS011;3007;50.770;0.250;2023-10-19T00:21:44;17.00;;;2.97;;
5961;SDS011;3007;50.770;0.250;2023-10-19T00:24:15;22.93;;;3.43;;
5961;SDS011;3007;50.770;0.250;2023-10-19T00:26:48;19.17;;;3.50;;
5961;SDS011;3007;50.770;0.250;2023-10-19T00:29:18;20.90;;;3.40;;
5961;SDS011;3007;50.770;0.250;2023-10-19T00:31:56;19.50;;;4.20;;
5961;SDS011;3007;50.770;0.250;2023-10-19T00:34:23;22.70;;;4.40;;
5961;SDS011;3007;50.770;0.250;2023-10-19T00:36:50;23.50;;;3.97;;
5961;SDS011;3007;50.770;0.250;2023-10-19T00:39:17;34.20;;;4.75;;
5961;SDS011;3007;50.770;0.250;2023-10-19T00:41:48;27.13;;;4.63;;
5961;SDS011;3007;50.770;0.250;2023-10-19T00:44:15;26.37;;;4.37;;
5961;SDS011;3007;50.770;0.250;2023-10-19T00:46:47;24.47;;;4.23;;
5961;SDS011;3007;50.770;0.250;2023-10-19T00:49:25;23.70;;;4.10;;
5961;SDS011;3007;50.770;0.250;2023-10-19T00:51:52;28.13;;;4.15;;
5961;SDS011;3007;50.770;0.250;2023-10-19T00:54:27;27.98;;;4.95;;
5961;SDS011;3007;50.770;0.250;2023-10-19T00:57:07;25.53;;;4.27;;
5961;SDS011;3007;50.770;0.250;2023-10-19T00:59:37;26.07;;;3.77;;
5961;SDS011;3007;50.770;0.250;2023-10-19T01:02:08;29.30;;;5.38;;
5961;SDS011;3007;50.770;0.250;2023-10-19T01:04:45;24.13;;;3.92;;
5961;SDS011;3007;50.770;0.250;2023-10-19T01:07:21;26.52;;;4.38;;
5961;SDS011;3007;50.770;0.250;2023-10-19T01:09:53;21.52;;;3.42;;
5961;SDS011;3007;50.770;0.250;2023-10-19T01:12:24;21.70;;;3.67;;
5961;SDS011;3007;50.770;0.250;2023-10-19T01:15:01;21.85;;;3.85;;
5961;SDS011;3007;50.770;0.250;2023-10-19T01:17:31;16.60;;;3.30;;
5961;SDS011;3007;50.770;0.250;2023-10-19T01:19:59;15.97;;;3.77;;
5961;SDS011;3007;50.770;0.250;2023-10-19T01:22:37;21.65;;;4.20;;
5961;SDS011;3007;50.770;0.250;2023-10-19T01:25:05;16.67;;;3.28;;
5961;SDS011;3007;50.770;0.250;2023-10-19T01:27:35;16.52;;;2.70;;
5961;SDS011;3007;50.770;0.250;2023-10-19T01:30:04;23.80;;;4.72;;
5961;SDS011;3007;50.770;0.250;2023-10-19T01:32:34;17.42;;;3.78;;
5961;SDS011;3007;50.770;0.250;2023-10-19T01:35:01;17.50;;;4.10;;
5961;SDS011;3007;50.770;0.250;2023-10-19T01:37:27;21.60;;;3.85;;
5961;SDS011;3007;50.770;0.250;2023-10-19T01:39:53;22.98;;;3.47;;
5961;SDS011;3007;50.770;0.250;2023-10-19T01:42:21;22.50;;;3.50;;
5961;SDS011;3007;50.770;0.250;2023-10-19T01:44:48;19.17;;;4.05;;
5961;SDS011;3007;50.770;0.250;2023-10-19T01:47:14;25.42;;;5.22;;
5961;SDS011;3007;50.770;0.250;2023-10-19T01:49:41;29.65;;;4.47;;
5961;SDS011;3007;50.770;0.250;2023-10-19T01:52:10;28.92;;;5.45;;
5961;SDS011;3007;50.770;0.250;2023-10-19T01:54:37;20.85;;;3.63;;
5961;SDS011;3007;50.770;0.250;2023-10-19T01:57:03;19.53;;;4.13;;
5961;SDS011;3007;50.770;0.250;2023-10-19T01:59:31;30.80;;;5.27;;
5961;SDS011;3007;50.770;0.250;2023-10-19T02:01:59;21.88;;;3.58;;
5961;SDS011;3007;50.770;0.250;2023-10-19T02:04:27;21.50;;;3.50;;
5961;SDS011;3007;50.770;0.250;2023-10-19T02:06:53;23.25;;;4.30;;
5961;SDS011;3007;50.770;0.250;2023-10-19T02:09:25;25.58;;;5.15;;
5961;SDS011;3007;50.770;0.250;2023-10-19T02:11:54;21.85;;;3.10;;
5961;SDS011;3007;50.770;0.250;2023-10-19T02:14:22;23.52;;;4.15;;
5961;SDS011;3007;50.770;0.250;2023-10-19T02:16:52;25.08;;;4.82;;
5961;SDS011;3007;50.770;0.250;2023-10-19T02:19:22;24.55;;;4.38;;
5961;SDS011;3007;50.770;0.250;2023-10-19T02:21:48;19.10;;;3.60;;
5961;SDS011;3007;50.770;0.250;2023-10-19T02:24:17;23.73;;;3.58;;
5961;SDS011;3007;50.770;0.250;2023-10-19T02:26:44;28.55;;;4.85;;
5961;SDS011;3007;50.770;0.250;2023-10-19T02:29:16;19.50;;;3.97;;
5961;SDS011;3007;50.770;0.250;2023-10-19T02:31:43;19.63;;;3.20;;
5961;SDS011;3007;50.770;0.250;2023-10-19T02:34:14;18.07;;;3.70;;
5961;SDS011;3007;50.770;0.250;2023-10-19T02:36:40;26.27;;;4.07;;
5961;SDS011;3007;50.770;0.250;2023-10-19T02:39:09;20.35;;;3.53;;
5961;SDS011;3007;50.770;0.250;2023-10-19T02:41:37;24.75;;;4.05;;
5961;SDS011;3007;50.770;0.250;2023-10-19T02:44:07;17.77;;;3.85;;
5961;SDS011;3007;50.770;0.250;2023-10-19T02:46:34;24.75;;;3.58;;
5961;SDS011;3007;50.770;0.250;2023-10-19T02:49:04;19.52;;;4.10;;
5961;SDS011;3007;50.770;0.250;2023-10-19T02:51:36;22.27;;;5.22;;
5961;SDS011;3007;50.770;0.250;2023-10-19T02:54:03;21.52;;;4.45;;
5961;SDS011;3007;50.770;0.250;2023-10-19T02:56:32;23.63;;;4.35;;
5961;SDS011;3007;50.770;0.250;2023-10-19T02:59:01;28.98;;;4.47;;
5961;SDS011;3007;50.770;0.250;2023-10-19T03:01:29;24.48;;;4.32;;
5961;SDS011;3007;50.770;0.250;2023-10-19T03:03:57;22.42;;;4.93;;
5961;SDS011;3007;50.770;0.250;2023-10-19T03:06:25;25.85;;;5.78;;
5961;SDS011;3007;50.770;0.250;2023-10-19T03:08:52;24.58;;;4.47;;
5961;SDS011;3007;50.770;0.250;2023-10-19T03:11:22;22.00;;;4.28;;
5961;SDS011;3007;50.770;0.250;2023-10-19T03:13:48;22.10;;;4.22;;
5961;SDS011;3007;50.770;0.250;2023-10-19T03:16:16;26.05;;;4.53;;
5961;SDS011;3007;50.770;0.250;2023-10-19T03:18:44;21.50;;;4.28;;
5961;SDS011;3007;50.770;0.250;2023-10-19T03:21:11;25.08;;;4.50;;
5961;SDS011;3007;50.770;0.250;2023-10-19T03:23:36;24.13;;;5.20;;
5961;SDS011;3007;50.770;0.250;2023-10-19T03:26:07;29.42;;;4.28;;
5961;SDS011;3007;50.770;0.250;2023-10-19T03:28:52;20.60;;;4.28;;
5961;SDS011;3007;50.770;0.250;2023-10-19T03:31:21;26.30;;;4.72;;
5961;SDS011;3007;50.770;0.250;2023-10-19T03:33:50;23.00;;;4.95;;
5961;SDS011;3007;50.770;0.250;2023-10-19T03:36:20;25.42;;;4.82;;
5961;SDS011;3007;50.770;0.250;2023-10-19T03:38:48;32.33;;;6.43;;
5961;SDS011;3007;50.770;0.250;2023-10-19T03:41:17;33.20;;;6.68;;
5961;SDS011;3007;50.770;0.250;2023-10-19T03:43:47;27.10;;;4.60;;
5961;SDS011;3007;50.770;0.250;2023-10-19T03:46:16;28.67;;;4.97;;
5961;SDS011;3007;50.770;0.250;2023-10-19T03:48:49;29.05;;;5.07;;
5961;SDS011;3007;50.770;0.250;2023-10-19T03:51:16;31.35;;;4.75;;
5961;SDS011;3007;50.770;0.250;2023-10-19T03:53:43;28.25;;;5.43;;
5961;SDS011;3007;50.770;0.250;2023-10-19T03:56:20;32.03;;;4.97;;
5961;SDS011;3007;50.770;0.250;2023-10-19T03:58:49;24.35;;;4.95;;
5961;SDS011;3007;50.770;0.250;2023-10-19T04:01:16;28.25;;;5.13;;
5961;SDS011;3007;50.770;0.250;2023-10-19T04:03:44;29.50;;;5.53;;
5961;SDS011;3007;50.770;0.250;2023-10-19T04:06:12;26.83;;;4.95;;
5961;SDS011;3007;50.770;0.250;2023-10-19T04:08:40;30.85;;;5.18;;
5961;SDS011;3007;50.770;0.250;2023-10-19T04:11:10;30.35;;;5.35;;
5961;SDS011;3007;50.770;0.250;2023-10-19T04:13:47;35.40;;;5.65;;
5961;SDS011;3007;50.770;0.250;2023-10-19T04:16:18;30.80;;;5.30;;
5961;SDS011;3007;50.770;0.250;2023-10-19T04:18:45;23.88;;;5.18;;
5961;SDS011;3007;50.770;0.250;2023-10-19T04:21:13;22.38;;;5.60;;
5961;SDS011;3007;50.770;0.250;2023-10-19T04:23:40;32.25;;;5.18;;
5961;SDS011;3007;50.770;0.250;2023-10-19T04:26:08;26.00;;;4.50;;
5961;SDS011;3007;50.770;0.250;2023-10-19T04:28:37;24.23;;;4.85;;
5961;SDS011;3007;50.770;0.250;2023-10-19T04:31:11;24.90;;;4.93;;
5961;SDS011;3007;50.770;0.250;2023-10-19T04:33:41;24.27;;;3.83;;
5961;SDS011;3007;50.770;0.250;2023-10-19T04:36:10;29.85;;;5.53;;
5961;SDS011;3007;50.770;0.250;2023-10-19T04:38:39;23.77;;;5.45;;
5961;SDS011;3007;50.770;0.250;2023-10-19T04:41:06;24.10;;;5.07;;
5961;SDS011;3007;50.770;0.250;2023-10-19T04:43:34;30.48;;;4.57;;
5961;SDS011;3007;50.770;0.250;2023-10-19T04:46:06;22.20;;;4.20;;
5961;SDS011;3007;50.770;0.250;2023-10-19T04:48:37;27.70;;;5.70;;
5961;SDS011;3007;50.770;0.250;2023-10-19T04:51:07;26.67;;;4.72;;
5961;SDS011;3007;50.770;0.250;2023-10-19T04:53:35;24.47;;;5.67;;
5961;SDS011;3007;50.770;0.250;2023-10-19T04:56:02;22.70;;;4.63;;
5961;SDS011;3007;50.770;0.250;2023-10-19T04:58:30;27.45;;;5.30;;
5961;SDS011;3007;50.770;0.250;2023-10-19T05:00:58;22.98;;;4.53;;
5961;SDS011;3007;50.770;0.250;2023-10-19T05:03:25;21.92;;;5.30;;
5961;SDS011;3007;50.770;0.250;2023-10-19T05:05:54;26.87;;;5.03;;
5961;SDS011;3007;50.770;0.250;2023-10-19T05:08:22;30.27;;;5.55;;
5961;SDS011;3007;50.770;0.250;2023-10-19T05:10:50;31.67;;;5.45;;
5961;SDS011;3007;50.770;0.250;2023-10-19T05:13:19;26.83;;;5.05;;
5961;SDS011;3007;50.770;0.250;2023-10-19T05:15:46;30.02;;;5.80;;
5961;SDS011;3007;50.770;0.250;2023-10-19T05:18:13;26.55;;;5.28;;
5961;SDS011;3007;50.770;0.250;2023-10-19T05:20:40;30.40;;;5.43;;
5961;SDS011;3007;50.770;0.250;2023-10-19T05:23:08;28.90;;;5.78;;
5961;SDS011;3007;50.770;0.250;2023-10-19T05:25:35;22.27;;;4.72;;
5961;SDS011;3007;50.770;0.250;2023-10-19T05:28:03;23.65;;;4.60;;
5961;SDS011;3007;50.770;0.250;2023-10-19T05:30:30;24.67;;;5.03;;
5961;SDS011;3007;50.770;0.250;2023-10-19T05:32:58;29.80;;;5.85;;
5961;SDS011;3007;50.770;0.250;2023-10-19T05:35:26;29.92;;;4.60;;
5961;SDS011;3007;50.770;0.250;2023-10-19T05:37:54;27.63;;;5.00;;
5961;SDS011;3007;50.770;0.250;2023-10-19T05:40:23;30.63;;;5.22;;
5961;SDS011;3007;50.770;0.250;2023-10-19T05:42:54;22.75;;;4.72;;
5961;SDS011;3007;50.770;0.250;2023-10-19T05:45:22;28.95;;;4.63;;
5961;SDS011;3007;50.770;0.250;2023-10-19T05:47:49;27.00;;;5.43;;
5961;SDS011;3007;50.770;0.250;2023-10-19T05:50:16;25.10;;;4.32;;
5961;SDS011;3007;50.770;0.250;2023-10-19T05:52:43;24.75;;;4.85;;
5961;SDS011;3007;50.770;0.250;2023-10-19T05:55:10;25.75;;;4.90;;
5961;SDS011;3007;50.770;0.250;2023-10-19T05:57:38;22.90;;;4.90;;
5961;SDS011;3007;50.770;0.250;2023-10-19T06:00:06;23.95;;;4.53;;
5961;SDS011;3007;50.770;0.250;2023-10-19T06:02:38;19.45;;;3.95;;
5961;SDS011;3007;50.770;0.250;2023-10-19T06:05:05;21.70;;;5.25;;
5961;SDS011;3007;50.770;0.250;2023-10-19T06:07:32;23.70;;;5.30;;
5961;SDS011;3007;50.770;0.250;2023-10-19T06:09:59;25.55;;;5.20;;
5961;SDS011;3007;50.770;0.250;2023-10-19T06:12:29;29.38;;;4.97;;
5961;SDS011;3007;50.770;0.250;2023-10-19T06:14:58;32.28;;;5.13;;
5961;SDS011;3007;50.770;0.250;2023-10-19T06:17:25;24.52;;;4.78;;
5961;SDS011;3007;50.770;0.250;2023-10-19T06:19:53;30.98;;;5.30;;
5961;SDS011;3007;50.770;0.250;2023-10-19T06:22:20;24.65;;;4.65;;
5961;SDS011;3007;50.770;0.250;2023-10-19T06:24:47;20.90;;;4.57;;
5961;SDS011;3007;50.770;0.250;2023-10-19T06:27:14;27.10;;;4.88;;
5961;SDS011;3007;50.770;0.250;2023-10-19T06:29:41;21.38;;;3.88;;
5961;SDS011;3007;50.770;0.250;2023-10-19T06:32:10;24.33;;;4.65;;
5961;SDS011;3007;50.770;0.250;2023-10-19T06:34:38;18.55;;;3.97;;
5961;SDS011;3007;50.770;0.250;2023-10-19T06:37:06;29.77;;;4.75;;
5961;SDS011;3007;50.770;0.250;2023-10-19T06:39:35;15.57;;;3.67;;
5961;SDS011;3007;50.770;0.250;2023-10-19T06:42:05;21.33;;;4.50;;
5961;SDS011;3007;50.770;0.250;2023-10-19T06:44:35;22.30;;;4.70;;
5961;SDS011;3007;50.770;0.250;2023-10-19T06:47:02;20.20;;;4.10;;
5961;SDS011;3007;50.770;0.250;2023-10-19T06:49:33;21.10;;;4.30;;
5961;SDS011;3007;50.770;0.250;2023-10-19T06:52:00;18.05;;;3.83;;
5961;SDS011;3007;50.770;0.250;2023-10-19T06:54:29;25.75;;;4.80;;
5961;SDS011;3007;50.770;0.250;2023-10-19T06:56:57;20.00;;;3.72;;
5961;SDS011;3007;50.770;0.250;2023-10-19T06:59:23;27.60;;;4.20;;
5961;SDS011;3007;50.770;0.250;2023-10-19T07:01:50;20.73;;;4.57;;
5961;SDS011;3007;50.770;0.250;2023-10-19T07:04:17;24.88;;;4.15;;
5961;SDS011;3007;50.770;0.250;2023-10-19T07:06:45;25.27;;;4.72;;
5961;SDS011;3007;50.770;0.250;2023-10-19T07:09:13;16.17;;;3.22;;
5961;SDS011;3007;50.770;0.250;2023-10-19T07:11:40;17.50;;;3.60;;
5961;SDS011;3007;50.770;0.250;2023-10-19T07:14:09;18.63;;;4.28;;
5961;SDS011;3007;50.770;0.250;2023-10-19T07:16:39;23.98;;;4.95;;
5961;SDS011;3007;50.770;0.250;2023-10-19T07:19:06;25.35;;;4.45;;
5961;SDS011;3007;50.770;0.250;2023-10-19T07:21:34;21.80;;;4.32;;
5961;SDS011;3007;50.770;0.250;2023-10-19T07:24:04;21.33;;;4.18;;
5961;SDS011;3007;50.770;0.250;2023-10-19T07:26:35;22.30;;;4.38;;
5961;SDS011;3007;50.770;0.250;2023-10-19T07:29:08;17.98;;;4.05;;
5961;SDS011;3007;50.770;0.250;2023-10-19T07:31:40;18.65;;;3.83;;
5961;SDS011;3007;50.770;0.250;2023-10-19T07:34:06;15.63;;;4.25;;
5961;SDS011;3007;50.770;0.250;2023-10-19T07:36:37;21.73;;;4.63;;
5961;SDS011;3007;50.770;0.250;2023-10-19T07:39:06;17.90;;;4.43;;
5961;SDS011;3007;50.770;0.250;2023-10-19T07:41:39;22.95;;;4.43;;
5961;SDS011;3007;50.770;0.250;2023-10-19T07:44:06;25.65;;;4.72;;
5961;SDS011;3007;50.770;0.250;2023-10-19T07:46:32;23.67;;;5.22;;
5961;SDS011;3007;50.770;0.250;2023-10-19T07:48:59;21.50;;;4.65;;
5961;SDS011;3007;50.770;0.250;2023-10-19T07:51:28;20.60;;;3.60;;
5961;SDS011;3007;50.770;0.250;2023-10-19T07:53:55;16.15;;;4.30;;
5961;SDS011;3007;50.770;0.250;2023-10-19T07:56:23;24.15;;;4.93;;
5961;SDS011;3007;50.770;0.250;2023-10-19T07:58:50;17.45;;;4.30;;
5961;SDS011;3007;50.770;0.250;2023-10-19T08:01:17;14.98;;;4.22;;
5961;SDS011;3007;50.770;0.250;2023-10-19T08:03:44;16.92;;;4.03;;
5961;SDS011;3007;50.770;0.250;2023-10-19T08:06:11;17.65;;;4.38;;
5961;SDS011;3007;50.770;0.250;2023-10-19T08:08:38;24.27;;;4.88;;
5961;SDS011;3007;50.770;0.250;2023-10-19T08:11:05;20.23;;;3.10;;
5961;SDS011;3007;50.770;0.250;2023-10-19T08:13:33;17.17;;;3.80;;
5961;SDS011;3007;50.770;0.250;2023-10-19T08:16:00;17.02;;;4.03;;
5961;SDS011;3007;50.770;0.250;2023-10-19T08:18:26;17.45;;;3.88;;
5961;SDS011;3007;50.770;0.250;2023-10-19T08:20:55;21.23;;;4.22;;
5961;SDS011;3007;50.770;0.250;2023-10-19T08:23:22;23.02;;;4.25;;
5961;SDS011;3007;50.770;0.250;2023-10-19T08:25:52;18.75;;;3.55;;
5961;SDS011;3007;50.770;0.250;2023-10-19T08:28:19;18.23;;;3.47;;
5961;SDS011;3007;50.770;0.250;2023-10-19T08:30:48;16.70;;;3.88;;
5961;SDS011;3007;50.770;0.250;2023-10-19T08:33:22;16.60;;;3.15;;
5961;SDS011;3007;50.770;0.250;2023-10-19T08:35:51;17.42;;;3.78;;
5961;SDS011;3007;50.770;0.250;2023-10-19T08:38:19;18.90;;;3.35;;
5961;SDS011;3007;50.770;0.250;2023-10-19T08:40:46;19.42;;;3.70;;
5961;SDS011;3007;50.770;0.250;2023-10-19T08:43:15;13.85;;;3.60;;
5961;SDS011;3007;50.770;0.250;2023-10-19T08:45:43;15.52;;;3.80;;
5961;SDS011;3007;50.770;0.250;2023-10-19T08:48:12;20.85;;;4.15;;
5961;SDS011;3007;50.770;0.250;2023-10-19T08:50:39;15.35;;;3.72;;
5961;SDS011;3007;50.770;0.250;2023-10-19T08:53:07;14.77;;;3.22;;
5961;SDS011;3007;50.770;0.250;2023-10-19T08:55:35;19.05;;;3.83;;
5961;SDS011;3007;50.770;0.250;2023-10-19T08:58:02;20.05;;;3.70;;
5961;SDS011;3007;50.770;0.250;2023-10-19T09:00:42;21.80;;;4.45;;
5961;SDS011;3007;50.770;0.250;2023-10-19T09:03:13;16.48;;;3.60;;
5961;SDS011;3007;50.770;0.250;2023-10-19T09:05:41;18.65;;;4.85;;
5961;SDS011;3007;50.770;0.250;2023-10-19T09:08:13;14.73;;;3.38;;
5961;SDS011;3007;50.770;0.250;2023-10-19T09:10:42;18.45;;;3.97;;
5961;SDS011;3007;50.770;0.250;2023-10-19T09:13:11;18.30;;;4.20;;
5961;SDS011;3007;50.770;0.250;2023-10-19T09:15:40;17.02;;;3.38;;
5961;SDS011;3007;50.770;0.250;2023-10-19T09:18:16;15.63;;;2.92;;
5961;SDS011;3007;50.770;0.250;2023-10-19T09:20:45;13.02;;;3.28;;
5961;SDS011;3007;50.770;0.250;2023-10-19T09:23:21;16.05;;;3.92;;
5961;SDS011;3007;50.770;0.250;2023-10-19T09:25:50;13.70;;;3.35;;
5961;SDS011;3007;50.770;0.250;2023-10-19T09:28:18;12.68;;;3.10;;
5961;SDS011;3007;50.770;0.250;2023-10-19T09:30:45;12.95;;;3.30;;
5961;SDS011;3007;50.770;0.250;2023-10-19T09:33:13;16.30;;;3.13;;
5961;SDS011;3007;50.770;0.250;2023-10-19T09:35:44;15.60;;;3.00;;
5961;SDS011;3007;50.770;0.250;2023-10-19T09:38:13;14.38;;;3.00;;
5961;SDS011;3007;50.770;0.250;2023-10-19T09:40:40;17.10;;;3.47;;
5961;SDS011;3007;50.770;0.250;2023-10-19T09:43:08;12.25;;;2.97;;
5961;SDS011;3007;50.770;0.250;2023-10-19T09:45:40;14.77;;;2.88;;
5961;SDS011;3007;50.770;0.250;2023-10-19T09:48:12;16.63;;;3.55;;
5961;SDS011;3007;50.770;0.250;2023-10-19T09:50:43;15.65;;;3.47;;
5961;SDS011;3007;50.770;0.250;2023-10-19T09:53:13;11.52;;;2.65;;
5961;SDS011;3007;50.770;0.250;2023-10-19T09:55:41;11.50;;;2.70;;
5961;SDS011;3007;50.770;0.250;2023-10-19T09:58:12;13.50;;;3.42;;
5961;SDS011;3007;50.770;0.250;2023-10-19T10:00:43;11.60;;;2.85;;
5961;SDS011;3007;50.770;0.250;2023-10-19T10:06:10;14.90;;;3.13;;
5961;SDS011;3007;50.770;0.250;2023-10-19T10:08:39;11.88;;;3.08;;
5961;SDS011;3007;50.770;0.250;2023-10-19T10:11:14;14.18;;;2.72;;
5961;SDS011;3007;50.770;0.250;2023-10-19T10:13:43;13.63;;;3.03;;
5961;SDS011;3007;50.770;0.250;2023-10-19T10:16:12;17.73;;;3.92;;
5961;SDS011;3007;50.770;0.250;2023-10-19T10:18:41;16.63;;;3.17;;
5961;SDS011;3007;50.770;0.250;2023-10-19T10:21:12;14.30;;;3.10;;
5961;SDS011;3007;50.770;0.250;2023-10-19T10:23:41;13.88;;;2.97;;
5961;SDS011;3007;50.770;0.250;2023-10-19T10:26:09;12.35;;;3.22;;
5961;SDS011;3007;50.770;0.250;2023-10-19T10:28:38;18.48;;;3.13;;
5961;SDS011;3007;50.770;0.250;2023-10-19T10:31:06;14.57;;;2.92;;
5961;SDS011;3007;50.770;0.250;2023-10-19T10:33:41;14.27;;;2.80;;
5961;SDS011;3007;50.770;0.250;2023-10-19T10:36:11;16.27;;;3.30;;
5961;SDS011;3007;50.770;0.250;2023-10-19T10:38:39;14.57;;;3.60;;
5961;SDS011;3007;50.770;0.250;2023-10-19T10:41:06;14.23;;;3.13;;
5961;SDS011;3007;50.770;0.250;2023-10-19T10:43:47;13.52;;;2.90;;
5961;SDS011;3007;50.770;0.250;2023-10-19T10:46:17;12.55;;;2.90;;
5961;SDS011;3007;50.770;0.250;2023-10-19T10:48:45;11.40;;;3.05;;
5961;SDS011;3007;50.770;0.250;2023-10-19T10:51:18;16.58;;;3.33;;
5961;SDS011;3007;50.770;0.250;2023-10-19T10:53:50;15.05;;;4.13;;
5961;SDS011;3007;50.770;0.250;2023-10-19T10:56:21;18.85;;;3.20;;
5961;SDS011;3007;50.770;0.250;2023-10-19T10:58:52;13.25;;;3.45;;
5961;SDS011;3007;50.770;0.250;2023-10-19T11:01:30;12.45;;;2.85;;
5961;SDS011;3007;50.770;0.250;2023-10-19T11:04:07;17.63;;;3.58;;
5961;SDS011;3007;50.770;0.250;2023-10-19T11:06:51;19.08;;;3.75;;
5961;SDS011;3007;50.770;0.250;2023-10-19T11:09:20;11.60;;;2.88;;
5961;SDS011;3007;50.770;0.250;2023-10-19T11:11:47;12.65;;;3.25;;
5961;SDS011;3007;50.770;0.250;2023-10-19T11:14:17;10.23;;;2.70;;
5961;SDS011;3007;50.770;0.250;2023-10-19T11:16:44;10.98;;;3.00;;
5961;SDS011;3007;50.770;0.250;2023-10-19T11:19:11;10.25;;;2.90;;
5961;SDS011;3007;50.770;0.250;2023-10-19T11:21:37;18.33;;;3.63;;
5961;SDS011;3007;50.770;0.250;2023-10-19T11:24:25;12.20;;;3.20;;
5961;SDS011;3007;50.770;0.250;2023-10-19T11:26:53;14.32;;;3.30;;
5961;SDS011;3007;50.770;0.250;2023-10-19T11:29:20;19.60;;;3.40;;
5961;SDS011;3007;50.770;0.250;2023-10-19T11:31:56;14.48;;;3.67;;
5961;SDS011;3007;50.770;0.250;2023-10-19T11:34:24;14.70;;;3.10;;
5961;SDS011;3007;50.770;0.250;2023-10-19T11:36:52;15.73;;;3.30;;
5961;SDS011;3007;50.770;0.250;2023-10-19T11:39:21;15.23;;;3.20;;
5961;SDS011;3007;50.770;0.250;2023-10-19T11:41:49;20.88;;;3.13;;
5961;SDS011;3007;50.770;0.250;2023-10-19T11:44:18;16.42;;;3.30;;
5961;SDS011;3007;50.770;0.250;2023-10-19T11:46:45;13.68;;;3.08;;
5961;SDS011;3007;50.770;0.250;2023-10-19T11:49:12;12.90;;;3.15;;
5961;SDS011;3007;50.770;0.250;2023-10-19T11:51:39;10.88;;;2.90;;
5961;SDS011;3007;50.770;0.250;2023-10-19T11:54:06;19.08;;;3.22;;
5961;SDS011;3007;50.770;0.250;2023-10-19T11:56:33;20.63;;;3.70;;
5961;SDS011;3007;50.770;0.250;2023-10-19T11:59:01;13.35;;;3.10;;
5961;SDS011;3007;50.770;0.250;2023-10-19T12:01:28;17.27;;;3.95;;
5961;SDS011;3007;50.770;0.250;2023-10-19T12:03:55;15.77;;;3.47;;
5961;SDS011;3007;50.770;0.250;2023-10-19T12:06:22;13.55;;;3.40;;
5961;SDS011;3007;50.770;0.250;2023-10-19T12:08:49;14.05;;;2.80;;
5961;SDS011;3007;50.770;0.250;2023-10-19T12:11:15;18.77;;;3.53;;
5961;SDS011;3007;50.770;0.250;2023-10-19T12:13:44;16.00;;;3.55;;
5961;SDS011;3007;50.770;0.250;2023-10-19T12:16:12;12.40;;;3.25;;
5961;SDS011;3007;50.770;0.250;2023-10-19T12:18:40;15.98;;;2.95;;
5961;SDS011;3007;50.770;0.250;2023-10-19T12:21:08;14.50;;;2.80;;
5961;SDS011;3007;50.770;0.250;2023-10-19T12:23:36;12.52;;;3.03;;
5961;SDS011;3007;50.770;0.250;2023-10-19T12:26:05;18.27;;;3.28;;
5961;SDS011;3007;50.770;0.250;2023-10-19T12:28:36;17.55;;;3.50;;
5961;SDS011;3007;50.770;0.250;2023-10-19T12:31:04;8.52;;;2.78;;
5961;SDS011;3007;50.770;0.250;2023-10-19T12:33:35;12.30;;;3.50;;
5961;SDS011;3007;50.770;0.250;2023-10-19T12:36:03;12.93;;;3.20;;
5961;SDS011;3007;50.770;0.250;2023-10-19T12:38:48;16.63;;;3.75;;
5961;SDS011;3007;50.770;0.250;2023-10-19T12:41:16;21.35;;;4.05;;
5961;SDS011;3007;50.770;0.250;2023-10-19T12:43:43;11.68;;;2.55;;
5961;SDS011;3007;50.770;0.250;2023-10-19T12:46:11;13.00;;;3.10;;
5961;SDS011;3007;50.770;0.250;2023-10-19T12:48:40;15.40;;;3.05;;
5961;SDS011;3007;50.770;0.250;2023-10-19T12:51:07;11.65;;;3.72;;
5961;SDS011;3007;50.770;0.250;2023-10-19T12:53:36;11.35;;;3.67;;
5961;SDS011;3007;50.770;0.250;2023-10-19T12:56:04;21.00;;;4.18;;
5961;SDS011;3007;50.770;0.250;2023-10-19T12:58:31;12.52;;;2.67;;
5961;SDS011;3007;50.770;0.250;2023-10-19T13:00:58;14.50;;;3.28;;
5961;SDS011;3007;50.770;0.250;2023-10-19T13:03:25;13.13;;;3.17;;
5961;SDS011;3007;50.770;0.250;2023-10-19T13:05:54;12.95;;;3.80;;
5961;SDS011;3007;50.770;0.250;2023-10-19T13:08:23;14.25;;;3.08;;
5961;SDS011;3007;50.770;0.250;2023-10-19T13:10:52;11.82;;;3.22;;
5961;SDS011;3007;50.770;0.250;2023-10-19T13:13:19;19.02;;;4.07;;
5961;SDS011;3007;50.770;0.250;2023-10-19T13:15:49;22.92;;;4.05;;
5961;SDS011;3007;50.770;0.250;2023-10-19T13:18:15;14.77;;;3.63;;
5961;SDS011;3007;50.770;0.250;2023-10-19T13:20:45;19.17;;;3.88;;
5961;SDS011;3007;50.770;0.250;2023-10-19T13:23:15;13.93;;;3.47;;
5961;SDS011;3007;50.770;0.250;2023-10-19T13:25:42;16.48;;;4.60;;
5961;SDS011;3007;50.770;0.250;2023-10-19T13:28:15;21.08;;;4.18;;
5961;SDS011;3007;50.770;0.250;2023-10-19T13:30:42;15.45;;;3.58;;
5961;SDS011;3007;50.770;0.250;2023-10-19T13:33:13;14.93;;;3.78;;
5961;SDS011;3007;50.770;0.250;2023-10-19T13:35:40;19.70;;;3.85;;
5961;SDS011;3007;50.770;0.250;2023-10-19T13:38:08;15.25;;;3.67;;
5961;SDS011;3007;50.770;0.250;2023-10-19T13:40:38;15.82;;;4.15;;
5961;SDS011;3007;50.770;0.250;2023-10-19T13:43:05;17.05;;;3.58;;
5961;SDS011;3007;50.770;0.250;2023-10-19T13:45:32;21.88;;;4.43;;
5961;SDS011;3007;50.770;0.250;2023-10-19T13:48:01;14.68;;;4.03;;
5961;SDS011;3007;50.770;0.250;2023-10-19T13:50:28;16.10;;;3.72;;
5961;SDS011;3007;50.770;0.250;2023-10-19T13:52:56;18.02;;;3.88;;
5961;SDS011;3007;50.770;0.250;2023-10-19T13:55:24;18.77;;;3.70;;
5961;SDS011;3007;50.770;0.250;2023-10-19T13:57:52;20.73;;;4.15;;
5961;SDS011;3007;50.770;0.250;2023-10-19T14:00:20;19.25;;;4.72;;
5961;SDS011;3007;50.770;0.250;2023-10-19T14:02:50;18.15;;;4.25;;
5961;SDS011;3007;50.770;0.250;2023-10-19T14:05:18;20.85;;;4.05;;
5961;SDS011;3007;50.770;0.250;2023-10-19T14:07:49;18.85;;;3.85;;
5961;SDS011;3007;50.770;0.250;2023-10-19T14:10:17;21.92;;;4.97;;
5961;SDS011;3007;50.770;0.250;2023-10-19T14:12:45;17.27;;;4.22;;
5961;SDS011;3007;50.770;0.250;2023-10-19T14:15:14;12.30;;;3.65;;
5961;SDS011;3007;50.770;0.250;2023-10-19T14:17:42;22.67;;;4.78;;
5961;SDS011;3007;50.770;0.250;2023-10-19T14:20:10;18.35;;;4.22;;
5961;SDS011;3007;50.770;0.250;2023-10-19T14:22:41;32.70;;;13.82;;
5961;SDS011;3007;50.770;0.250;2023-10-19T14:25:10;17.27;;;5.22;;
5961;SDS011;3007;50.770;0.250;2023-10-19T14:27:41;20.63;;;4.30;;
5961;SDS011;3007;50.770;0.250;2023-10-19T14:30:09;14.32;;;3.38;;
5961;SDS011;3007;50.770;0.250;2023-10-19T14:32:39;15.18;;;4.30;;
5961;SDS011;3007;50.770;0.250;2023-10-19T14:35:08;17.73;;;4.50;;
5961;SDS011;3007;50.770;0.250;2023-10-19T14:37:36;17.98;;;3.90;;
5961;SDS011;3007;50.770;0.250;2023-10-19T14:40:06;16.67;;;4.13;;
5961;SDS011;3007;50.770;0.250;2023-10-19T14:42:35;20.35;;;4.55;;
5961;SDS011;3007;50.770;0.250;2023-10-19T14:45:04;18.92;;;5.32;;
5961;SDS011;3007;50.770;0.250;2023-10-19T14:47:35;17.52;;;4.72;;
5961;SDS011;3007;50.770;0.250;2023-10-19T14:50:07;14.60;;;4.80;;
5961;SDS011;3007;50.770;0.250;2023-10-19T14:52:39;17.67;;;4.93;;
5961;SDS011;3007;50.770;0.250;2023-10-19T14:55:07;22.17;;;4.90;;
5961;SDS011;3007;50.770;0.250;2023-10-19T14:57:35;21.10;;;4.88;;
5961;SDS011;3007;50.770;0.250;2023-10-19T15:00:04;17.70;;;5.10;;
5961;SDS011;3007;50.770;0.250;2023-10-19T15:02:40;15.63;;;3.85;;
5961;SDS011;3007;50.770;0.250;2023-10-19T15:05:09;15.90;;;4.05;;
5961;SDS011;3007;50.770;0.250;2023-10-19T15:07:38;23.35;;;7.13;;
5961;SDS011;3007;50.770;0.250;2023-10-19T15:10:07;20.45;;;5.20;;
5961;SDS011;3007;50.770;0.250;2023-10-19T15:12:36;11.85;;;4.00;;
5961;SDS011;3007;50.770;0.250;2023-10-19T15:15:04;17.50;;;3.83;;